Aviation Digital Data Service (ADDS)

Output produced by METARs form (0124 UTC 23 July 2017)
found at http://www.aviationweather.gov/adds/metars/
 
LPAZ 222200Z 14005KT 9999 FEW014 21/19 Q1026
TAF LPAZ 221700Z 2218/2324 16007KT 9999 SCT012 BKN030 
     PROB40 
     TEMPO 2218/2324 5000 -RADZ BR SCT005 BKN010
       
LPBJ 230100Z 30007KT CAVOK 17/13 Q1019
TAF LPBJ 222302Z 2300/2324 33010KT CAVOK 
     TEMPO 2300/2318 34012G22KT
       
LPCS 222100Z 35022G35KT 9999 FEW015 18/14 Q1018
LPFR 230100Z 03006KT CAVOK 23/14 Q1016
TAF LPFR 222300Z 2300/2324 33007KT CAVOK 
     BECMG 2301/2304 VRB03KT 
     BECMG 2310/2312 23010KT 
     BECMG 2318/2320 33013KT
       
LPHR 222100Z 14011KT 9999 FEW014 BKN035 22/19 Q1025
LPLA 230100Z 15007KT 9999 FEW012 SCT018 BKN030 21/19 Q1026
TAF LPLA 222302Z 2300/2324 14010KT 9999 FEW020 SCT030 
     BECMG 2302/2304 20008KT 
     PROB30 
     TEMPO 2303/2324 8000 -SHRA SCT008 BKN014
       
LPMA 230100Z 02015KT 350V050 9999 SCT016 22/16 Q1023
TAF LPMA 222300Z 2300/2324 02013KT 9999 SCT016 
     TEMPO 2300/2324 02018G28KT FEW015 BKN030
       
LPMR 230100Z 34008KT CAVOK 16/13 Q1020
TAF LPMR 222304Z 2300/2324 34010KT CAVOK 
     PROB30 2300/2309 BKN006 
     TEMPO 2300/2318 35012G22KT
       
LPMT 230100Z 35009KT 9999 FEW018 18/13 Q1019
TAF LPMT 222303Z 2300/2324 34010KT 9999 FEW020 
     TEMPO 2300/2318 35012G22KT
       
LPOV 230100Z 35005KT CAVOK 15/13 Q1019
TAF LPOV 222302Z 2300/2324 34012KT CAVOK 
     TEMPO 2300/2318 35015G25KT
       
LPPD 230100Z 11004KT 070V140 9999 SCT015 BKN030 21/20 Q1027
TAF LPPD 222300Z 2300/2324 11007KT 9999 SCT012 BKN030 
     PROB40 
     TEMPO 2300/2324 5000 -RADZ BR SCT005 BKN010 
     BECMG 2303/2306 VRB05KT
       
LPPR 230100Z 31003KT CAVOK 14/12 Q1020
TAF LPPR 222300Z 2300/2324 36005KT CAVOK 
     BECMG 2310/2312 32015KT 
     PROB30 
     TEMPO 2312/2320 32017G27KT 
     BECMG 2320/2323 35007KT 9999 SCT008
       
LPPS 230100Z 04007KT 360V080 9999 SCT015 21/17 Q1023
TAF LPPS 222300Z 2300/2406 02013KT 9999 SCT015 
     TEMPO 2300/2406 FEW015 BKN030 
     PROB30 
     TEMPO 2300/2308 BKN015 
     BECMG 2315/2318 03018KT
       
LPPT 230100Z 35011KT 310V010 9999 FEW016 17/13 Q1019
TAF LPPT 222300Z 2300/2406 34012KT CAVOK 
     PROB40 
     TEMPO 2300/2312 34015G25KT 
     BECMG 2310/2312 34017KT 
     TEMPO 2312/2322 34020G32KT 
     BECMG 2322/2324 34012KT 9999 SCT012 
     PROB30 
     TEMPO 2402/2406 BKN008
       
LPBJ 230100Z 30007KT CAVOK 17/13 Q1019
TAF LPBJ 222302Z 2300/2324 33010KT CAVOK 
     TEMPO 2300/2318 34012G22KT
       
LPCS 222100Z 35022G35KT 9999 FEW015 18/14 Q1018
LPFR 230100Z 03006KT CAVOK 23/14 Q1016
TAF LPFR 222300Z 2300/2324 33007KT CAVOK 
     BECMG 2301/2304 VRB03KT 
     BECMG 2310/2312 23010KT 
     BECMG 2318/2320 33013KT
       
LPHR 222100Z 14011KT 9999 FEW014 BKN035 22/19 Q1025
LPLA 230100Z 15007KT 9999 FEW012 SCT018 BKN030 21/19 Q1026
TAF LPLA 222302Z 2300/2324 14010KT 9999 FEW020 SCT030 
     BECMG 2302/2304 20008KT 
     PROB30 
     TEMPO 2303/2324 8000 -SHRA SCT008 BKN014
       
LPPT 230100Z 35011KT 310V010 9999 FEW016 17/13 Q1019
TAF LPPT 222300Z 2300/2406 34012KT CAVOK 
     PROB40 
     TEMPO 2300/2312 34015G25KT 
     BECMG 2310/2312 34017KT 
     TEMPO 2312/2322 34020G32KT 
     BECMG 2322/2324 34012KT 9999 SCT012 
     PROB30 
     TEMPO 2402/2406 BKN008
       
LPMA 230100Z 02015KT 350V050 9999 SCT016 22/16 Q1023
TAF LPMA 222300Z 2300/2324 02013KT 9999 SCT016 
     TEMPO 2300/2324 02018G28KT FEW015 BKN030
       
LPMR 230100Z 34008KT CAVOK 16/13 Q1020
TAF LPMR 222304Z 2300/2324 34010KT CAVOK 
     PROB30 2300/2309 BKN006 
     TEMPO 2300/2318 35012G22KT
       
LPMT 230100Z 35009KT 9999 FEW018 18/13 Q1019
TAF LPMT 222303Z 2300/2324 34010KT 9999 FEW020 
     TEMPO 2300/2318 35012G22KT
       
LPOV 230100Z 35005KT CAVOK 15/13 Q1019
TAF LPOV 222302Z 2300/2324 34012KT CAVOK 
     TEMPO 2300/2318 35015G25KT
       
LPPD 230100Z 11004KT 070V140 9999 SCT015 BKN030 21/20 Q1027
TAF LPPD 222300Z 2300/2324 11007KT 9999 SCT012 BKN030 
     PROB40 
     TEMPO 2300/2324 5000 -RADZ BR SCT005 BKN010 
     BECMG 2303/2306 VRB05KT
       
LPPR 230100Z 31003KT CAVOK 14/12 Q1020
TAF LPPR 222300Z 2300/2324 36005KT CAVOK 
     BECMG 2310/2312 32015KT 
     PROB30 
     TEMPO 2312/2320 32017G27KT 
     BECMG 2320/2323 35007KT 9999 SCT008
       
LPPS 230100Z 04007KT 360V080 9999 SCT015 21/17 Q1023
TAF LPPS 222300Z 2300/2406 02013KT 9999 SCT015 
     TEMPO 2300/2406 FEW015 BKN030 
     PROB30 
     TEMPO 2300/2308 BKN015 
     BECMG 2315/2318 03018KT
       
LPAZ 222200Z 14005KT 9999 FEW014 21/19 Q1026
TAF LPAZ 221700Z 2218/2324 16007KT 9999 SCT012 BKN030 
     PROB40 
     TEMPO 2218/2324 5000 -RADZ BR SCT005 BKN010